TimeEST,TemperatureF,Dew PointF,Humidity,Sea Level PressureIn,VisibilityMPH,Wind Direction,Wind SpeedMPH,Gust SpeedMPH,PrecipitationIn,Events,Conditions,WindDirDegrees,DateUTC
12:53 AM,37.9,30.9,76,29.94,10.0,SSW,8.1,-,N/A,,Overcast,200,2012-12-07 05:53:00
1:53 AM,37.9,30.9,76,29.93,10.0,SSW,6.9,-,N/A,,Overcast,200,2012-12-07 06:53:00
2:53 AM,37.9,32.0,79,29.94,10.0,SSW,5.8,-,N/A,,Overcast,200,2012-12-07 07:53:00
3:53 AM,39.0,32.0,76,29.93,10.0,SSW,4.6,-,N/A,,Overcast,210,2012-12-07 08:53:00
4:53 AM,39.0,33.1,79,29.92,9.0,SSW,5.8,-,N/A,,Overcast,200,2012-12-07 09:53:00
5:53 AM,39.0,33.1,79,29.93,9.0,SW,3.5,-,N/A,,Overcast,220,2012-12-07 10:53:00
6:53 AM,39.0,34.0,82,29.94,8.0,SW,4.6,-,0.00,Rain,Light Rain,220,2012-12-07 11:53:00
7:53 AM,39.0,35.1,86,29.95,7.0,SSW,3.5,-,0.00,,Overcast,200,2012-12-07 12:53:00
8:24 AM,39.2,35.6,87,29.94,5.0,SSW,5.8,-,N/A,,Overcast,210,2012-12-07 13:24:00
8:53 AM,39.0,35.1,86,29.96,4.0,SW,5.8,-,N/A,,Overcast,220,2012-12-07 13:53:00
9:53 AM,41.0,36.0,82,29.96,4.0,SW,5.8,-,N/A,,Haze,230,2012-12-07 14:53:00
10:10 AM,41.0,35.6,81,29.94,4.0,SW,5.8,-,N/A,,Haze,230,2012-12-07 15:10:00
10:53 AM,42.1,37.0,82,29.97,5.0,WSW,4.6,-,N/A,,Haze,250,2012-12-07 15:53:00
11:53 AM,44.1,37.0,76,29.96,7.0,NW,4.6,-,N/A,,Overcast,310,2012-12-07 16:53:00
12:53 PM,46.0,37.0,71,29.94,7.0,Calm,Calm,-,N/A,,Overcast,0,2012-12-07 17:53:00
1:49 PM,46.4,37.4,71,29.91,7.0,Calm,Calm,-,N/A,,Mostly Cloudy,0,2012-12-07 18:49:00
1:53 PM,46.0,37.0,71,29.93,7.0,Calm,Calm,-,N/A,,Mostly Cloudy,0,2012-12-07 18:53:00
2:53 PM,46.0,37.0,71,29.94,7.0,Calm,Calm,-,N/A,,Overcast,0,2012-12-07 19:53:00
3:53 PM,46.0,37.0,71,29.95,8.0,Calm,Calm,-,N/A,,Overcast,0,2012-12-07 20:53:00
4:53 PM,43.0,36.0,76,29.95,6.0,ENE,6.9,-,N/A,,Haze,70,2012-12-07 21:53:00
5:33 PM,42.8,35.6,76,29.94,7.0,NE,4.6,-,N/A,,Overcast,50,2012-12-07 22:33:00
5:53 PM,41.0,36.0,82,29.96,7.0,NE,9.2,-,N/A,,Mostly Cloudy,40,2012-12-07 22:53:00
6:08 PM,41.0,35.6,81,29.94,7.0,NNE,8.1,-,N/A,,Mostly Cloudy,30,2012-12-07 23:08:00
6:32 PM,39.2,35.6,87,29.95,7.0,ENE,8.1,-,N/A,,Overcast,60,2012-12-07 23:32:00
6:53 PM,39.9,36.0,86,29.97,7.0,ENE,6.9,-,N/A,,Overcast,70,2012-12-07 23:53:00
7:53 PM,39.9,35.1,83,29.97,10.0,ENE,9.2,-,N/A,,Overcast,70,2012-12-08 00:53:00
8:53 PM,39.9,34.0,79,29.97,10.0,ENE,8.1,-,N/A,,Overcast,70,2012-12-08 01:53:00
9:33 PM,39.2,33.8,81,29.95,10.0,ENE,9.2,-,N/A,,Overcast,70,2012-12-08 02:33:00
9:53 PM,39.9,33.1,77,29.96,10.0,ENE,10.4,-,N/A,,Overcast,70,2012-12-08 02:53:00
10:53 PM,39.9,32.0,73,29.94,10.0,ENE,9.2,-,N/A,,Overcast,60,2012-12-08 03:53:00
11:53 PM,39.0,32.0,76,29.96,10.0,NNE,9.2,-,N/A,,Overcast,30,2012-12-08 04:53:00